Time;durP1;ratioP1;P1;durP2;ratioP2;P2;SDS_P1;SDS_P2;PMS_P1;PMS_P2;Temp;Humidity;BMP_temperature;BMP_pressure;BME280_temperature;BME280_humidity;BME280_pressure;Samples;Min_cycle;Max_cycle;Signal;HPM_P1;HPM_P2
2023/08/13 00:03:49;;;;;;;12.32;3.30;;;;;;;16.17;100.00;101483.25;5092217;28;20035;-84
2023/08/13 00:09:36;;;;;;;11.60;3.38;;;;;;;16.06;100.00;101476.81;5092215;28;20198;-83
2023/08/13 00:12:01;;;;;;;10.90;4.05;;;;;;;16.06;100.00;101482.19;5073947;28;20513;-82
2023/08/13 00:14:27;;;;;;;7.15;3.40;;;;;;;16.02;100.00;101481.03;5073855;28;20028;-82
2023/08/13 00:20:14;;;;;;;10.25;3.63;;;;;;;15.91;100.00;101467.56;5092023;28;20116;-86
2023/08/13 00:26:01;;;;;;;12.70;4.28;;;;;;;15.89;100.00;101478.56;5091999;28;20208;-83
2023/08/13 00:31:49;;;;;;;8.75;3.50;;;;;;;15.75;100.00;101474.44;5091910;28;20093;-84
2023/08/13 00:37:36;;;;;;;7.15;3.10;;;;;;;15.74;100.00;101479.03;5091650;28;20376;-85
2023/08/13 00:43:23;;;;;;;11.02;3.88;;;;;;;15.63;100.00;101462.84;5091968;28;20058;-83
2023/08/13 00:49:10;;;;;;;12.00;4.13;;;;;;;15.56;100.00;101462.88;5091713;28;20869;-88
2023/08/13 00:54:57;;;;;;;12.95;3.58;;;;;;;15.52;100.00;101459.00;5092460;28;20577;-86
2023/08/13 01:00:44;;;;;;;9.05;3.30;;;;;;;15.54;100.00;101461.47;5092335;28;20478;-87
2023/08/13 01:07:03;;;;;;;8.88;3.30;;;;;;;15.49;100.00;101464.88;5096344;28;20097;-86
2023/08/13 01:13:08;;;;;;;9.93;3.72;;;;;;;15.41;100.00;101465.22;5095752;28;20131;-84
2023/08/13 01:18:55;;;;;;;14.52;4.05;;;;;;;15.38;100.00;101463.81;5095851;28;20108;-85
2023/08/13 01:21:20;;;;;;;11.73;3.90;;;;;;;15.38;100.00;101465.69;5095196;28;20472;-84
2023/08/13 01:23:45;;;;;;;7.67;3.50;;;;;;;15.35;100.00;101468.84;5096905;28;20107;-87
2023/08/13 01:29:48;;;;;;;8.25;3.47;;;;;;;15.32;100.00;101471.97;5097087;28;20276;-86
2023/08/13 01:32:16;;;;;;;13.20;4.10;;;;;;;15.28;100.00;101468.91;5060624;28;20063;-84
2023/08/13 01:34:43;;;;;;;11.20;3.70;;;;;;;15.22;100.00;101467.13;5076358;28;20389;-87
2023/08/13 01:40:30;;;;;;;12.63;3.97;;;;;;;15.16;100.00;101474.28;5095509;28;20035;-87
2023/08/13 01:42:55;;;;;;;10.98;3.47;;;;;;;15.15;100.00;101466.41;5094120;28;20396;-86
2023/08/13 01:45:21;;;;;;;9.32;3.28;;;;;;;15.11;100.00;101473.31;5094918;28;20165;-84
2023/08/13 01:51:08;;;;;;;9.43;4.50;;;;;;;15.10;100.00;101474.38;5095643;28;20120;-86
2023/08/13 01:53:33;;;;;;;12.27;3.63;;;;;;;15.10;100.00;101471.66;5094855;28;20127;-83
2023/08/13 01:55:59;;;;;;;11.50;3.40;;;;;;;15.10;100.00;101474.38;5094746;28;20638;-84
2023/08/13 01:58:24;;;;;;;6.57;3.23;;;;;;;15.05;100.00;101466.97;5093999;28;20294;-83
2023/08/13 02:04:10;;;;;;;10.75;4.35;;;;;;;15.03;100.00;101477.13;5094823;28;20065;-85
2023/08/13 02:09:58;;;;;;;10.77;3.63;;;;;;;14.97;100.00;101471.84;5094702;28;20070;-84
2023/08/13 02:12:23;;;;;;;10.97;3.47;;;;;;;14.94;100.00;101472.28;5075799;28;20088;-84
2023/08/13 02:18:10;;;;;;;11.98;3.38;;;;;;;14.92;100.00;101458.22;5094635;28;20051;-84
2023/08/13 02:23:57;;;;;;;10.00;3.45;;;;;;;14.88;100.00;101461.38;5094321;28;20787;-83
2023/08/13 02:29:44;;;;;;;9.40;3.22;;;;;;;14.86;100.00;101468.88;5094260;28;20684;-86
2023/08/13 02:35:31;;;;;;;11.35;3.22;;;;;;;14.83;100.00;101460.44;5093610;28;20039;-82
2023/08/13 02:37:56;;;;;;;12.17;4.00;;;;;;;14.77;100.00;101456.78;5075910;28;20023;-84
2023/08/13 02:43:54;;;;;;;8.85;3.15;;;;;;;14.73;100.00;101454.75;5094252;28;20051;-84
2023/08/13 02:46:21;;;;;;;10.27;3.20;;;;;;;14.74;100.00;101459.06;5093987;28;20089;-85
2023/08/13 02:48:46;;;;;;;12.55;3.80;;;;;;;14.68;100.00;101449.22;5094002;28;20020;-85
2023/08/13 02:51:12;;;;;;;10.52;4.35;;;;;;;14.71;100.00;101448.75;5075126;28;20040;-86
2023/08/13 02:53:38;;;;;;;12.43;3.75;;;;;;;14.71;100.00;101446.06;5092538;28;20119;-86
2023/08/13 02:59:25;;;;;;;15.70;4.18;;;;;;;14.65;100.00;101444.28;5094192;28;20051;-82
2023/08/13 03:05:12;;;;;;;8.07;3.55;;;;;;;14.61;100.00;101440.41;5094616;28;20043;-81
2023/08/13 03:07:37;;;;;;;14.77;3.95;;;;;;;14.55;100.00;101437.56;5093545;28;20020;-84
2023/08/13 03:10:03;;;;;;;10.82;3.47;;;;;;;14.55;100.00;101442.13;5093630;28;20034;-87
2023/08/13 03:12:28;;;;;;;8.88;3.53;;;;;;;14.57;100.00;101446.25;5074467;28;20054;-84
2023/08/13 03:18:15;;;;;;;10.45;3.50;;;;;;;14.49;100.00;101446.56;5094061;28;20043;-85
2023/08/13 03:20:41;;;;;;;8.67;3.40;;;;;;;14.47;100.00;101450.53;5092697;28;20032;-85
2023/08/13 03:23:06;;;;;;;8.40;4.23;;;;;;;14.44;100.00;101442.88;5093815;28;20278;-87
2023/08/13 03:25:31;;;;;;;9.27;3.40;;;;;;;14.41;100.00;101446.81;5093121;28;20768;-86
2023/08/13 03:31:18;;;;;;;14.82;4.07;;;;;;;14.36;100.00;101448.53;5093513;28;20132;-88
2023/08/13 03:33:44;;;;;;;12.55;3.63;;;;;;;14.34;100.00;101447.94;5093338;28;20063;-86
2023/08/13 03:36:09;;;;;;;11.63;3.63;;;;;;;14.32;100.00;101450.84;5092398;28;20036;-83
2023/08/13 03:38:35;;;;;;;9.43;3.72;;;;;;;14.28;100.00;101438.91;5074741;28;20028;-83
2023/08/13 03:41:00;;;;;;;12.50;3.47;;;;;;;14.24;100.00;101432.31;5074914;28;20038;-83
2023/08/13 03:43:25;;;;;;;11.73;3.40;;;;;;;14.27;100.00;101438.06;5092024;28;20942;-83
2023/08/13 03:45:51;;;;;;;9.48;4.07;;;;;;;14.25;100.00;101447.41;5074842;28;20269;-84
2023/08/13 03:48:16;;;;;;;8.73;4.13;;;;;;;14.26;100.00;101446.38;5092848;28;20028;-85
2023/08/13 03:50:42;;;;;;;11.75;4.18;;;;;;;14.24;100.00;101451.16;5091991;28;20298;-84
2023/08/13 03:53:09;;;;;;;7.70;3.45;;;;;;;14.22;100.00;101442.47;5092695;28;20059;-83
2023/08/13 03:55:35;;;;;;;13.77;4.53;;;;;;;14.21;100.00;101447.03;5092726;28;20036;-82
2023/08/13 04:01:22;;;;;;;10.38;3.72;;;;;;;14.29;100.00;101454.00;5093813;28;20119;-88
2023/08/13 04:03:47;;;;;;;8.50;3.90;;;;;;;14.23;100.00;101452.19;5074648;28;20056;-87
2023/08/13 04:09:34;;;;;;;14.50;3.92;;;;;;;14.15;100.00;101453.28;5092713;28;20051;-84
2023/08/13 04:12:00;;;;;;;9.93;4.37;;;;;;;14.13;100.00;101459.94;5092183;28;20032;-87
2023/08/13 04:14:25;;;;;;;11.53;3.43;;;;;;;14.20;100.00;101466.09;5092451;28;20274;-86
2023/08/13 04:20:12;;;;;;;8.77;3.83;;;;;;;14.17;100.00;101463.84;5092316;28;20415;-84
2023/08/13 04:22:37;;;;;;;13.48;4.40;;;;;;;14.15;100.00;101455.97;5092336;28;20028;-84
2023/08/13 04:25:03;;;;;;;10.52;3.60;;;;;;;14.20;100.00;101460.72;5074108;28;20024;-85
2023/08/13 04:30:50;;;;;;;11.05;4.40;;;;;;;14.25;100.00;101459.00;5092340;28;20085;-82
2023/08/13 04:36:37;;;;;;;9.50;3.75;;;;;;;14.29;100.00;101462.06;5092523;28;20281;-86
2023/08/13 04:39:02;;;;;;;15.95;4.20;;;;;;;14.31;100.00;101454.59;5092297;28;20020;-85
2023/08/13 04:41:28;;;;;;;13.15;4.57;;;;;;;14.43;100.00;101450.13;5074022;28;20036;-83
2023/08/13 04:47:15;;;;;;;9.75;3.65;;;;;;;14.61;100.00;101445.78;5092528;28;20055;-82
2023/08/13 04:53:02;;;;;;;10.50;3.95;;;;;;;14.95;100.00;101466.69;5092682;28;20442;-85
2023/08/13 04:58:49;;;;;;;8.18;3.70;;;;;;;15.07;100.00;101475.66;5092247;28;20102;-84
2023/08/13 05:01:14;;;;;;;8.68;3.60;;;;;;;15.13;100.00;101471.22;5091826;28;20028;-85
2023/08/13 05:03:42;;;;;;;13.07;4.63;;;;;;;15.27;100.00;101463.75;5091888;28;20077;-85
2023/08/13 05:09:31;;;;;;;8.38;3.65;;;;;;;15.62;100.00;101462.00;5092185;28;20404;-85
2023/08/13 05:11:56;;;;;;;8.38;3.88;;;;;;;15.86;100.00;101464.72;5090828;28;20055;-85
2023/08/13 05:17:43;;;;;;;14.00;4.95;;;;;;;16.45;100.00;101454.69;5092146;28;20522;-84
2023/08/13 05:20:08;;;;;;;11.47;4.83;;;;;;;16.43;100.00;101446.84;5090749;28;20040;-84
2023/08/13 05:30:11;;;;;;;9.77;3.97;;;;;;;16.47;100.00;101463.38;5091523;28;20039;-82
2023/08/13 05:35:58;;;;;;;10.05;4.43;;;;;;;16.59;100.00;101472.28;5091634;28;20060;-82
2023/08/13 05:41:46;;;;;;;11.07;4.63;;;;;;;16.49;100.00;101474.78;5091646;28;20036;-80
2023/08/13 05:44:11;;;;;;;12.10;4.93;;;;;;;16.34;100.00;101468.00;5091255;28;20444;-81
2023/08/13 05:46:36;;;;;;;12.55;5.07;;;;;;;16.59;100.00;101470.41;5073243;28;20028;-83
2023/08/13 05:49:01;;;;;;;9.02;4.07;;;;;;;16.94;100.00;101475.75;5090444;28;20036;-82
2023/08/13 05:54:48;;;;;;;11.40;4.45;;;;;;;18.43;100.00;101479.84;5095034;28;20046;-82
2023/08/13 05:57:14;;;;;;;10.50;4.43;;;;;;;19.04;100.00;101486.84;5093646;28;20036;-82
2023/08/13 05:59:39;;;;;;;14.07;4.18;;;;;;;19.54;100.00;101502.03;5094504;28;20274;-81
2023/08/13 06:02:04;;;;;;;9.77;4.20;;;;;;;20.10;100.00;101495.16;5094278;28;20118;-85
2023/08/13 06:07:51;;;;;;;12.00;4.93;;;;;;;21.00;100.00;101492.34;5094642;28;20553;-83
2023/08/13 06:10:16;;;;;;;9.97;3.97;;;;;;;21.40;100.00;101491.66;5094322;28;20032;-85
2023/08/13 06:12:42;;;;;;;9.18;4.03;;;;;;;21.74;100.00;101497.41;5093426;28;20480;-83
2023/08/13 06:21:57;;;;;;;11.75;4.15;;;;;;;21.91;100.00;101489.75;5094476;28;20502;-83
2023/08/13 06:27:44;;;;;;;7.28;3.05;;;;;;;20.94;100.00;101487.97;5094131;28;20465;-85
2023/08/13 06:33:31;;;;;;;13.00;4.07;;;;;;;20.03;100.00;101488.31;5094240;28;20400;-85
2023/08/13 06:35:56;;;;;;;11.17;4.40;;;;;;;19.81;100.00;101491.13;5075656;28;20036;-83
2023/08/13 06:38:23;;;;;;;12.07;3.57;;;;;;;19.69;100.00;101487.78;5094070;28;20293;-87
2023/08/13 06:40:49;;;;;;;13.90;4.15;;;;;;;20.22;100.00;101496.84;5093642;28;20634;-86
2023/08/13 06:46:36;;;;;;;11.55;3.80;;;;;;;21.36;100.00;101492.44;5094229;28;20047;-84
2023/08/13 06:49:02;;;;;;;10.60;4.15;;;;;;;20.97;100.00;101493.69;5093081;28;20040;-84
2023/08/13 06:54:48;;;;;;;11.63;3.90;;;;;;;20.19;100.00;101494.66;5094060;28;20043;-82
2023/08/13 07:00:37;;;;;;;11.45;3.67;;;;;;;19.93;100.00;101494.47;5093560;28;20293;-84
2023/08/13 07:06:25;;;;;;;10.95;3.67;;;;;;;20.08;100.00;101494.59;5093549;28;20502;-82
2023/08/13 07:08:50;;;;;;;9.45;3.80;;;;;;;20.09;100.00;101493.50;5075361;28;20384;-82
2023/08/13 07:11:16;;;;;;;10.70;3.90;;;;;;;20.21;100.00;101489.78;5092393;28;20044;-83
2023/08/13 07:17:03;;;;;;;11.13;4.55;;;;;;;20.30;100.00;101485.50;5093708;28;20269;-81
2023/08/13 07:22:50;;;;;;;10.50;3.83;;;;;;;21.25;100.00;101476.13;5093452;28;20093;-82
2023/08/13 07:28:39;;;;;;;7.95;3.00;;;;;;;21.58;100.00;101479.41;5093011;28;20046;-83
2023/08/13 07:34:26;;;;;;;8.60;3.55;;;;;;;22.29;100.00;101484.81;5092978;28;20557;-84
2023/08/13 07:40:16;;;;;;;12.52;3.83;;;;;;;22.00;100.00;101483.75;5092800;28;20277;-83
2023/08/13 07:46:03;;;;;;;9.15;3.35;;;;;;;22.52;100.00;101486.09;5092936;28;20046;-82
2023/08/13 07:48:28;;;;;;;10.52;3.55;;;;;;;22.84;100.00;101492.00;5091910;28;20396;-84
2023/08/13 07:54:15;;;;;;;10.02;3.20;;;;;;;22.70;98.93;101481.94;5092812;28;20650;-87
2023/08/13 08:00:07;;;;;;;7.65;3.15;;;;;;;23.05;98.35;101484.50;5092480;28;20347;-81
2023/08/13 08:05:54;;;;;;;11.85;3.70;;;;;;;25.69;84.48;101471.78;5092715;28;20053;-78
2023/08/13 08:11:41;;;;;;;7.38;2.58;;;;;;;26.45;84.28;101481.38;5092230;28;20047;-80
2023/08/13 08:17:28;;;;;;;11.13;2.92;;;;;;;26.22;79.09;101481.22;5092106;28;20055;-81
2023/08/13 08:23:15;;;;;;;7.85;2.55;;;;;;;24.69;82.44;101490.19;5092102;28;20043;-87
2023/08/13 08:29:02;;;;;;;8.57;2.90;;;;;;;24.03;89.29;101482.72;5092255;28;20187;-84
2023/08/13 08:34:49;;;;;;;9.95;3.22;;;;;;;23.88;92.67;101474.66;5091943;28;20434;-83
2023/08/13 08:40:36;;;;;;;8.98;2.70;;;;;;;23.53;92.73;101475.75;5092688;28;20110;-86
2023/08/13 08:46:26;;;;;;;9.65;2.75;;;;;;;22.93;95.82;101477.78;5091739;28;20342;-86
2023/08/13 08:52:15;;;;;;;13.20;3.85;;;;;;;22.94;100.00;101472.03;5091569;28;20085;-85
2023/08/13 08:58:02;;;;;;;7.85;2.65;;;;;;;23.18;97.15;101467.53;5092035;28;20491;-81
2023/08/13 09:03:49;;;;;;;9.20;3.42;;;;;;;24.39;93.96;101464.03;5092011;28;20043;-82
2023/08/13 09:09:37;;;;;;;8.85;2.72;;;;;;;24.62;87.57;101454.19;5092310;28;20046;-84
2023/08/13 09:15:24;;;;;;;8.73;2.97;;;;;;;23.75;89.14;101451.56;5091503;28;20036;-81
2023/08/13 09:21:11;;;;;;;8.93;3.08;;;;;;;24.03;92.00;101450.72;5091251;28;20117;-82
2023/08/13 09:26:58;;;;;;;6.13;2.70;;;;;;;25.44;84.54;101445.59;5094723;28;20313;-82
2023/08/13 09:32:46;;;;;;;9.60;3.10;;;;;;;27.44;71.98;101442.09;5094761;28;20090;-80
2023/08/13 09:38:33;;;;;;;6.90;2.72;;;;;;;28.17;67.18;101442.69;5094030;28;20062;-82
2023/08/13 09:44:25;;;;;;;5.68;2.70;;;;;;;27.04;67.36;101430.16;5094758;28;20186;-81
2023/08/13 09:53:35;;;;;;;7.93;2.80;;;;;;;25.52;75.70;101426.59;5094691;28;20047;-81
2023/08/13 09:59:23;;;;;;;8.18;3.35;;;;;;;25.51;79.91;101413.19;5094633;28;20042;-81
2023/08/13 10:05:10;;;;;;;11.48;3.53;;;;;;;25.12;83.40;101410.81;5094651;28;20449;-82
2023/08/13 10:10:58;;;;;;;7.82;2.88;;;;;;;25.25;78.29;101410.06;5094089;28;20392;-83
2023/08/13 10:16:46;;;;;;;6.72;2.55;;;;;;;25.34;75.69;101413.72;5094197;28;20407;-81
2023/08/13 10:22:40;;;;;;;7.40;2.63;;;;;;;25.44;76.60;101405.34;5094278;28;20050;-82
2023/08/13 10:28:31;;;;;;;12.65;3.10;;;;;;;25.34;76.18;101405.50;5093417;28;20051;-81
2023/08/13 10:34:18;;;;;;;8.40;2.85;;;;;;;24.84;77.53;101399.69;5094211;28;20046;-80
2023/08/13 10:40:08;;;;;;;6.72;2.80;;;;;;;24.54;80.15;101391.91;5094054;28;20517;-80
2023/08/13 10:45:55;;;;;;;6.10;2.75;;;;;;;25.02;83.50;101396.16;5094146;28;20047;-86
2023/08/13 10:51:41;;;;;;;7.18;3.13;;;;;;;24.74;79.78;101391.63;5093832;28;20301;-80
2023/08/13 10:57:29;;;;;;;9.70;3.03;;;;;;;24.27;83.18;101390.59;5093421;28;20063;-80
2023/08/13 11:03:22;;;;;;;8.85;3.05;;;;;;;24.95;78.39;101403.09;5093490;28;20124;-80
2023/08/13 11:09:09;;;;;;;12.45;2.90;;;;;;;25.98;74.51;101379.16;5093438;28;20054;-85
2023/08/13 11:15:00;;;;;;;11.68;3.05;;;;;;;26.70;72.05;101390.28;5093538;28;20100;-80
2023/08/13 11:20:48;;;;;;;6.72;3.05;;;;;;;26.30;72.04;101382.91;5093464;28;20042;-81
2023/08/13 11:26:35;;;;;;;10.25;3.15;;;;;;;26.37;77.11;101380.63;5093384;28;20047;-82
2023/08/13 11:32:23;;;;;;;7.32;3.30;;;;;;;25.98;74.86;101383.84;5093654;28;20089;-84
2023/08/13 11:38:10;;;;;;;8.40;3.03;;;;;;;25.49;74.65;101383.38;5093049;28;20042;-80
2023/08/13 11:43:59;;;;;;;9.75;3.10;;;;;;;26.36;76.71;101373.50;5093107;28;20039;-83
2023/08/13 11:49:46;;;;;;;9.90;3.22;;;;;;;25.94;78.44;101372.69;5092982;28;20054;-81
2023/08/13 11:55:33;;;;;;;10.73;3.15;;;;;;;26.42;77.37;101364.84;5092848;28;20293;-80
2023/08/13 12:01:23;;;;;;;8.73;2.92;;;;;;;28.06;67.99;101354.16;5092802;28;20047;-82
2023/08/13 12:07:10;;;;;;;9.50;2.85;;;;;;;30.18;59.84;101352.94;5093033;28;20051;-81
2023/08/13 12:12:57;;;;;;;7.40;2.72;;;;;;;30.00;59.10;101354.97;5092511;28;20638;-83
2023/08/13 12:22:05;;;;;;;7.88;2.72;;;;;;;26.79;68.27;101347.25;5092383;28;20055;-78
2023/08/13 12:27:53;;;;;;;9.02;2.92;;;;;;;26.79;69.54;101339.03;5092199;28;20777;-82
2023/08/13 12:33:40;;;;;;;5.88;2.78;;;;;;;25.87;70.59;101342.94;5092741;28;20063;-85
2023/08/13 12:39:27;;;;;;;11.00;3.38;;;;;;;26.34;73.97;101332.69;5092222;28;20089;-83
2023/08/13 12:45:13;;;;;;;9.85;2.88;;;;;;;26.03;73.36;101332.50;5092238;28;20051;-85
2023/08/13 12:51:00;;;;;;;5.70;2.80;;;;;;;27.94;67.45;101337.47;5091710;28;20515;-87
2023/08/13 12:56:47;;;;;;;9.23;2.90;;;;;;;28.31;63.71;101322.34;5090881;28;20273;-82
2023/08/13 13:02:34;;;;;;;6.03;3.05;;;;;;;27.10;66.83;101330.06;5095443;28;20047;-81
2023/08/13 13:08:21;;;;;;;6.07;2.95;;;;;;;26.38;71.96;101319.97;5095314;28;20137;-81
2023/08/13 13:10:47;;;;;;;7.88;2.78;;;;;;;26.33;70.67;101316.50;5076316;28;20074;-80
2023/08/13 13:16:34;;;;;;;9.80;2.88;;;;;;;26.01;73.56;101315.50;5094832;28;20052;-79
2023/08/13 13:22:21;;;;;;;7.38;3.10;;;;;;;25.85;76.19;101319.69;5094989;28;20050;-80
2023/08/13 13:28:08;;;;;;;9.02;3.20;;;;;;;26.43;76.93;101319.03;5095189;28;20050;-79
2023/08/13 13:33:55;;;;;;;9.63;3.03;;;;;;;28.43;69.51;101318.97;5094552;28;20476;-79
2023/08/13 13:43:06;;;;;;;5.28;2.72;;;;;;;27.24;72.69;101314.34;5095792;28;20059;-82
2023/08/13 13:48:53;;;;;;;9.20;3.40;;;;;;;26.56;77.06;101301.72;5095252;28;20094;-86
2023/08/13 13:54:40;;;;;;;6.05;3.10;;;;;;;27.12;71.99;101303.13;5094548;28;20355;-85
2023/08/13 14:00:28;;;;;;;8.43;3.03;;;;;;;26.20;76.16;101297.00;5094364;28;20312;-75
2023/08/13 14:06:14;;;;;;;8.65;2.97;;;;;;;25.68;76.64;101298.38;5094261;28;20051;-79
2023/08/13 14:12:01;;;;;;;7.65;3.05;;;;;;;25.14;83.42;101299.09;5093430;28;20067;-82
2023/08/13 14:17:48;;;;;;;9.00;3.25;;;;;;;24.84;89.73;101292.19;5093643;28;20065;-79
2023/08/13 14:23:35;;;;;;;8.35;3.22;;;;;;;24.69;86.51;101285.03;5093697;28;20278;-79
2023/08/13 14:29:23;;;;;;;7.40;3.30;;;;;;;24.86;86.81;101274.34;5093661;28;20273;-79
2023/08/13 14:35:09;;;;;;;12.07;3.20;;;;;;;24.94;85.30;101273.69;5095768;28;20043;-81
2023/08/13 14:40:57;;;;;;;10.20;3.13;;;;;;;25.93;82.36;101261.44;5093415;28;20126;-81
2023/08/13 14:46:44;;;;;;;9.30;3.45;;;;;;;26.52;82.45;101265.88;5094104;28;20062;-84
2023/08/13 14:52:31;;;;;;;11.68;3.70;;;;;;;26.27;77.46;101271.91;5093688;28;20184;-81
2023/08/13 14:58:18;;;;;;;6.88;3.33;;;;;;;25.74;78.31;101267.03;5093258;28;20402;-81
2023/08/13 15:04:05;;;;;;;7.18;3.35;;;;;;;26.47;75.96;101279.69;5093273;28;20468;-80
2023/08/13 15:09:52;;;;;;;8.27;2.97;;;;;;;26.60;75.37;101286.28;5093066;28;20058;-76
2023/08/13 15:15:39;;;;;;;10.18;3.33;;;;;;;25.01;89.13;101278.78;5092648;28;20127;-80
2023/08/13 15:21:26;;;;;;;7.32;2.92;;;;;;;24.06;97.37;101285.38;5092777;28;20089;-80
2023/08/13 15:27:13;;;;;;;9.57;3.10;;;;;;;23.56;98.66;101295.00;5091750;28;20400;-75
2023/08/13 15:32:59;;;;;;;6.65;3.22;;;;;;;23.23;99.32;101294.75;5092640;28;20335;-79
2023/08/13 15:38:46;;;;;;;7.65;3.38;;;;;;;23.34;100.00;101300.91;5092209;28;20773;-81
2023/08/13 15:44:33;;;;;;;7.05;3.13;;;;;;;24.10;94.21;101286.41;5092192;28;20165;-81
2023/08/13 15:50:21;;;;;;;6.53;2.58;;;;;;;24.09;93.90;101296.53;5092067;28;20054;-80
2023/08/13 15:56:07;;;;;;;8.05;2.67;;;;;;;24.09;95.14;101295.72;5091843;28;20300;-80
2023/08/13 16:01:54;;;;;;;7.10;2.70;;;;;;;24.08;94.59;101288.63;5092462;28;20403;-84
2023/08/13 16:07:41;;;;;;;7.30;2.42;;;;;;;24.00;96.63;101292.03;5092857;28;20319;-82
2023/08/13 16:13:28;;;;;;;6.25;2.72;;;;;;;23.92;97.01;101300.84;5092171;28;20296;-82
2023/08/13 16:19:15;;;;;;;6.97;2.97;;;;;;;23.45;98.03;101286.09;5092167;28;20165;-80
2023/08/13 16:25:02;;;;;;;7.20;2.70;;;;;;;23.01;100.00;101292.50;5092855;28;20055;-79
2023/08/13 16:30:50;;;;;;;8.43;2.90;;;;;;;22.64;100.00;101292.22;5091807;28;20043;-84
2023/08/13 16:36:38;;;;;;;7.85;3.15;;;;;;;22.44;100.00;101296.69;5091703;28;20189;-82
2023/08/13 16:42:25;;;;;;;6.78;2.78;;;;;;;22.42;100.00;101295.34;5091802;28;20035;-81
2023/08/13 16:48:13;;;;;;;7.10;2.83;;;;;;;22.69;100.00;101286.72;5091713;28;20626;-81
2023/08/13 16:54:01;;;;;;;5.82;2.85;;;;;;;22.89;100.00;101281.16;5091693;28;20046;-80
2023/08/13 16:59:48;;;;;;;8.20;2.90;;;;;;;23.13;100.00;101282.03;5091443;28;20387;-81
2023/08/13 17:05:35;;;;;;;7.25;2.83;;;;;;;23.51;100.00;101282.19;5091066;28;20043;-80
2023/08/13 17:14:44;;;;;;;7.03;3.25;;;;;;;23.17;100.00;101291.25;5091266;28;20093;-83
2023/08/13 17:20:30;;;;;;;5.80;2.92;;;;;;;22.87;100.00;101291.53;5091166;28;20523;-82
2023/08/13 17:26:17;;;;;;;7.93;3.00;;;;;;;22.98;100.00;101303.97;5091013;28;20448;-75
2023/08/13 17:32:04;;;;;;;8.73;3.22;;;;;;;22.97;100.00;101299.63;5090864;28;20339;-81
2023/08/13 17:37:51;;;;;;;8.85;3.13;;;;;;;23.15;100.00;101289.94;5090798;28;20129;-80
2023/08/13 17:43:39;;;;;;;6.95;2.85;;;;;;;23.17;100.00;101283.06;5090779;28;20042;-82
2023/08/13 17:49:25;;;;;;;8.20;2.70;;;;;;;23.16;100.00;101286.09;5094460;28;20069;-84
2023/08/13 17:55:12;;;;;;;5.65;2.63;;;;;;;23.17;100.00;101285.00;5093973;28;20277;-85
2023/08/13 18:01:00;;;;;;;6.07;2.88;;;;;;;22.81;100.00;101281.75;5093927;28;20323;-86
2023/08/13 18:06:47;;;;;;;5.10;2.60;;;;;;;22.61;100.00;101293.59;5094153;28;20101;-85
2023/08/13 18:12:33;;;;;;;6.53;2.92;;;;;;;22.43;100.00;101297.78;5093945;28;20300;-82
2023/08/13 18:18:20;;;;;;;6.22;2.65;;;;;;;22.29;100.00;101296.81;5093914;28;20806;-84
2023/08/13 18:24:07;;;;;;;4.97;2.63;;;;;;;22.12;100.00;101299.06;5093307;28;20373;-83
2023/08/13 18:29:54;;;;;;;7.80;3.10;;;;;;;21.64;100.00;101298.66;5093646;28;20608;-85
2023/08/13 18:35:42;;;;;;;6.57;3.28;;;;;;;21.10;100.00;101301.16;5093464;28;20289;-85
2023/08/13 18:41:30;;;;;;;6.97;3.13;;;;;;;20.62;100.00;101306.06;5094071;28;20038;-83
2023/08/13 18:47:17;;;;;;;5.32;2.83;;;;;;;20.51;100.00;101315.25;5093056;28;20117;-83
2023/08/13 18:53:04;;;;;;;7.72;3.35;;;;;;;20.33;100.00;101313.84;5093030;28;20113;-80
2023/08/13 18:58:51;;;;;;;8.25;3.00;;;;;;;20.03;100.00;101318.09;5093493;28;20105;-82
2023/08/13 19:04:38;;;;;;;11.20;3.83;;;;;;;19.87;100.00;101308.22;5093456;28;20117;-82
2023/08/13 19:10:25;;;;;;;8.25;3.63;;;;;;;19.62;100.00;101311.63;5093376;28;20392;-81
2023/08/13 19:16:11;;;;;;;7.65;3.50;;;;;;;19.42;100.00;101323.16;5092913;28;20344;-79
2023/08/13 19:21:59;;;;;;;6.80;3.45;;;;;;;19.25;100.00;101330.59;5092564;28;20097;-79
2023/08/13 19:27:46;;;;;;;7.20;3.45;;;;;;;19.21;100.00;101337.63;5092836;28;20408;-80
2023/08/13 19:33:32;;;;;;;8.13;3.95;;;;;;;19.07;100.00;101342.66;5092228;28;20333;-81
2023/08/13 19:39:21;;;;;;;5.55;3.22;;;;;;;18.95;100.00;101346.63;5092037;28;20730;-82
2023/08/13 19:45:08;;;;;;;6.90;3.10;;;;;;;18.88;100.00;101358.50;5092722;28;20035;-81
2023/08/13 19:50:56;;;;;;;8.05;3.95;;;;;;;18.70;100.00;101358.84;5092458;28;20039;-82
2023/08/13 19:56:43;;;;;;;7.30;3.30;;;;;;;18.81;100.00;101359.78;5092208;28;20046;-85
2023/08/13 20:02:30;;;;;;;6.70;3.67;;;;;;;18.52;100.00;101368.13;5091980;28;20146;-82
2023/08/13 20:08:17;;;;;;;7.10;3.60;;;;;;;18.32;100.00;101370.56;5091775;28;20177;-81
2023/08/13 20:14:04;;;;;;;8.32;3.97;;;;;;;18.17;100.00;101371.19;5092062;28;20078;-80
2023/08/13 20:19:51;;;;;;;7.97;4.00;;;;;;;17.92;100.00;101360.84;5091679;28;20649;-79
2023/08/13 20:25:38;;;;;;;7.22;4.13;;;;;;;17.83;100.00;101361.53;5092505;28;20269;-79
2023/08/13 20:31:24;;;;;;;10.10;5.13;;;;;;;17.83;100.00;101359.66;5092032;28;20545;-79
2023/08/13 20:37:12;;;;;;;6.85;3.95;;;;;;;17.76;100.00;101353.59;5092817;28;20689;-79
2023/08/13 20:42:59;;;;;;;6.93;3.50;;;;;;;17.66;100.00;101358.84;5092386;28;20050;-82
2023/08/13 20:48:46;;;;;;;6.70;3.92;;;;;;;17.72;100.00;101355.19;5092093;28;20324;-85
2023/08/13 20:54:33;;;;;;;7.13;3.78;;;;;;;17.74;100.00;101358.44;5091868;28;20324;-83
2023/08/13 21:00:22;;;;;;;5.47;3.60;;;;;;;17.54;100.00;101348.09;5091125;28;20324;-81
2023/08/13 21:06:08;;;;;;;7.75;3.60;;;;;;;17.36;100.00;101351.09;5091378;28;20035;-77
2023/08/13 21:11:55;;;;;;;6.47;4.40;;;;;;;17.31;100.00;101340.16;5092872;28;20355;-83
2023/08/13 21:17:42;;;;;;;9.25;4.70;;;;;;;17.43;100.00;101348.22;5091438;28;20403;-80
2023/08/13 21:23:29;;;;;;;7.78;5.07;;;;;;;17.37;100.00;101339.22;5094968;28;20043;-80
2023/08/13 21:29:16;;;;;;;4.80;3.75;;;;;;;17.24;100.00;101342.22;5094757;28;20419;-79
2023/08/13 21:35:04;;;;;;;5.95;4.47;;;;;;;17.10;100.00;101332.81;5094082;28;20273;-78
2023/08/13 21:40:51;;;;;;;6.18;3.95;;;;;;;16.86;100.00;101335.66;5094687;28;20097;-82
2023/08/13 21:46:38;;;;;;;8.20;4.72;;;;;;;16.71;100.00;101354.28;5094479;28;20038;-79
2023/08/13 21:52:25;;;;;;;10.95;5.22;;;;;;;16.64;100.00;101351.69;5093837;28;20400;-78
2023/08/13 21:58:13;;;;;;;9.93;4.60;;;;;;;16.48;100.00;101365.13;5094367;28;20159;-76
2023/08/13 22:04:00;;;;;;;7.18;4.72;;;;;;;16.36;100.00;101371.41;5094429;28;20093;-75
2023/08/13 22:09:47;;;;;;;8.77;5.80;;;;;;;16.33;100.00;101358.38;5093641;28;20669;-75
2023/08/13 22:15:34;;;;;;;10.52;5.93;;;;;;;16.37;100.00;101367.66;5093749;28;20071;-78
2023/08/13 22:21:21;;;;;;;11.50;6.88;;;;;;;16.35;100.00;101368.94;5095452;28;20408;-81
2023/08/13 22:27:08;;;;;;;8.32;5.18;;;;;;;16.26;100.00;101365.81;5094008;28;20047;-80
2023/08/13 22:32:56;;;;;;;7.65;5.47;;;;;;;16.25;100.00;101372.28;5097734;28;20047;-80
2023/08/13 22:38:43;;;;;;;8.65;5.55;;;;;;;16.18;100.00;101386.94;5093430;28;20093;-77
2023/08/13 22:47:52;;;;;;;9.75;6.80;;;;;;;16.03;100.00;101401.75;5093627;28;20046;-78
2023/08/13 22:53:39;;;;;;;14.63;7.95;;;;;;;16.04;100.00;101406.09;5093057;28;20330;-76
2023/08/13 22:59:26;;;;;;;12.10;6.95;;;;;;;15.92;100.00;101393.69;5092710;28;20314;-76
2023/08/13 23:05:15;;;;;;;11.45;7.25;;;;;;;15.95;100.00;101395.91;5093565;28;20058;-78
2023/08/13 23:11:02;;;;;;;10.63;7.75;;;;;;;15.93;100.00;101392.63;5093247;28;20050;-77
2023/08/13 23:16:53;;;;;;;12.02;7.45;;;;;;;15.87;100.00;101394.34;5096889;28;20043;-81
2023/08/13 23:22:40;;;;;;;9.88;7.60;;;;;;;15.95;100.00;101387.81;5102891;28;20039;-80
2023/08/13 23:28:27;;;;;;;13.02;7.60;;;;;;;15.88;100.00;101379.81;5095420;28;20051;-81
2023/08/13 23:34:15;;;;;;;11.07;7.22;;;;;;;15.75;100.00;101369.28;5093597;28;20083;-78
2023/08/13 23:40:02;;;;;;;13.02;6.65;;;;;;;15.50;100.00;101364.91;5096381;28;20047;-80